Wilcox, Nebraska
Current Conditions -  °F | °C
As of 11:55 PM on Thursday 30 Oct 2014 (Local Time) from KHDE Reporting Station
Clear Clear  
Wind Chill: 37°   Ceiling: Unl
Heat Index: 37°   Visibility: 10mi
Dew Point: 32°   Wind: 3mph
Humidity: 81%   Direction: 360°N
Pressure: 30.42"   Gusts: NA
Location:  40.37°N, 99.17°W
Report Text: KHDE 310455Z AUTO 36003KT 10SM CLR 03/00 A3042 RMK AO2 T00300000
Loading
Personal Weather Stations






























Interactive Weather Map
Tropical Storm Tracking
New forecast layout! Learn more

10-Day Weather Forecast

Advertisements
Track Severe Weather on mobile